Time;durP1;ratioP1;P1;durP2;ratioP2;P2;SDS_P1;SDS_P2;PMS_P1;PMS_P2;Temp;Humidity;BMP_temperature;BMP_pressure;BME280_temperature;BME280_humidity;BME280_pressure;Samples;Min_cycle;Max_cycle;Signal;HPM_P1;HPM_P2
2022/01/12 00:00:09;;;;;;;0.20;0.10;;;10.80;99.90;;;;;;25464377;23;20214;-69
2022/01/12 00:10:13;;;;;;;0.20;0.00;;;10.60;99.90;;;;;;25438376;23;20171;-68
2022/01/12 00:20:18;;;;;;;0.20;0.10;;;10.70;99.90;;;;;;25437423;23;20210;-68
2022/01/12 00:40:47;;;;;;;0.20;0.10;;;11.00;99.90;;;;;;25439408;23;20547;-68
2022/01/12 00:50:51;;;;;;;0.20;0.10;;;10.80;99.90;;;;;;25471578;23;20249;-68
2022/01/12 01:00:56;;;;;;;0.20;0.00;;;10.90;99.90;;;;;;25468899;23;20209;-68
2022/01/12 01:11:00;;;;;;;0.20;0.10;;;10.90;99.90;;;;;;25470382;23;20171;-68
2022/01/12 01:31:31;;;;;;;0.20;0.10;;;10.10;99.90;;;;;;25469063;23;20269;-69
2022/01/12 01:41:38;;;;;;;0.20;0.10;;;9.80;99.90;;;;;;25469035;23;20508;-69
2022/01/12 02:02:06;;;;;;;0.20;0.10;;;9.60;99.90;;;;;;25466709;23;20229;-69
2022/01/12 02:12:12;;;;;;;0.20;0.10;;;9.60;99.90;;;;;;25468134;23;20190;-68
2022/01/12 02:43:12;;;;;;;0.20;0.10;;;9.60;99.90;;;;;;25465072;23;20171;-68
2022/01/12 03:03:50;;;;;;;0.20;0.10;;;9.80;99.90;;;;;;25411866;23;20668;-68
2022/01/12 03:13:54;;;;;;;0.20;0.10;;;9.60;99.90;;;;;;25465754;23;20191;-68
2022/01/12 03:24:00;;;;;;;0.20;0.10;;;9.50;99.90;;;;;;25465942;23;20257;-67
2022/01/12 03:34:11;;;;;;;0.20;0.10;;;9.60;99.90;;;;;;25438556;23;20191;-68
2022/01/12 03:44:17;;;;;;;0.20;0.10;;;9.60;99.90;;;;;;25463357;23;20266;-69
2022/01/12 03:54:21;;;;;;;0.20;0.00;;;9.20;99.90;;;;;;25463515;23;20278;-68
2022/01/12 04:04:34;;;;;;;0.20;0.10;;;9.00;99.90;;;;;;25436059;23;20206;-67
2022/01/12 04:14:38;;;;;;;0.20;0.10;;;8.60;99.90;;;;;;25462798;23;20273;-67
2022/01/12 04:24:43;;;;;;;0.20;0.10;;;8.30;99.90;;;;;;25461545;23;20259;-68
2022/01/12 04:34:47;;;;;;;0.20;0.10;;;8.10;99.90;;;;;;25460492;23;20198;-68
2022/01/12 04:45:00;;;;;;;0.20;0.00;;;8.10;99.90;;;;;;25462523;23;20250;-68
2022/01/12 04:55:04;;;;;;;0.20;0.10;;;8.20;99.90;;;;;;25460575;23;20193;-67
2022/01/12 05:15:34;;;;;;;0.20;0.10;;;8.10;99.90;;;;;;25462481;23;20218;-69
2022/01/12 05:25:39;;;;;;;0.20;0.10;;;8.30;99.90;;;;;;25462756;23;20174;-69
2022/01/12 05:35:44;;;;;;;0.20;0.00;;;8.50;99.90;;;;;;25467072;23;20191;-68
2022/01/12 05:45:50;;;;;;;0.20;0.10;;;8.40;99.90;;;;;;25464039;23;20254;-68
2022/01/12 05:55:54;;;;;;;0.20;0.10;;;8.70;99.90;;;;;;25467618;23;20345;-68
2022/01/12 06:05:59;;;;;;;0.20;0.10;;;8.90;99.90;;;;;;25465345;23;20719;-69
2022/01/12 06:16:08;;;;;;;0.20;0.07;;;8.80;99.90;;;;;;25468330;23;20187;-68
2022/01/12 06:26:13;;;;;;;0.20;0.10;;;8.70;99.90;;;;;;25467423;23;20263;-68
2022/01/12 06:36:19;;;;;;;0.20;0.10;;;8.90;99.90;;;;;;25465021;23;20226;-68
2022/01/12 06:46:29;;;;;;;0.20;0.10;;;9.00;99.90;;;;;;25436361;23;20651;-68
2022/01/12 06:56:33;;;;;;;0.20;0.10;;;8.90;99.90;;;;;;25461670;23;20617;-69
2022/01/12 07:06:39;;;;;;;0.20;0.10;;;9.00;99.90;;;;;;25454250;23;20251;-69
2022/01/12 07:16:43;;;;;;;0.20;0.10;;;9.00;99.90;;;;;;25459757;23;20281;-78
2022/01/12 07:26:48;;;;;;;0.20;0.07;;;9.00;99.90;;;;;;25437087;23;20175;-68
2022/01/12 07:36:52;;;;;;;0.20;0.00;;;9.00;99.90;;;;;;25436266;23;20283;-68
2022/01/12 07:46:57;;;;;;;0.20;0.00;;;9.10;99.90;;;;;;25436034;23;20564;-67
2022/01/12 07:57:01;;;;;;;0.20;0.10;;;9.50;99.90;;;;;;25435168;23;20255;-67
2022/01/12 08:07:10;;;;;;;0.20;0.10;;;9.70;99.90;;;;;;25457895;23;20218;-69
2022/01/12 08:17:14;;;;;;;0.20;0.10;;;10.00;99.90;;;;;;25458478;23;20270;-67
2022/01/12 08:27:19;;;;;;;0.20;0.10;;;10.40;99.90;;;;;;25458841;23;20205;-68
2022/01/12 08:37:23;;;;;;;0.20;0.10;;;10.50;99.90;;;;;;25459090;23;20269;-68
2022/01/12 08:47:28;;;;;;;0.20;0.10;;;10.60;99.90;;;;;;25460854;23;20310;-67
2022/01/12 08:57:32;;;;;;;0.20;0.10;;;11.20;99.90;;;;;;25459439;23;20914;-66
2022/01/12 09:07:38;;;;;;;0.20;0.10;;;11.50;99.90;;;;;;25468526;23;20190;-73
2022/01/12 09:17:43;;;;;;;0.20;0.10;;;11.50;99.90;;;;;;25463252;23;20301;-72
2022/01/12 09:27:48;;;;;;;0.20;0.10;;;11.30;99.90;;;;;;25426899;23;20257;-73
2022/01/12 09:37:52;;;;;;;0.20;0.10;;;11.60;99.90;;;;;;25453026;23;20194;-74
2022/01/12 09:47:58;;;;;;;0.20;0.10;;;11.80;99.90;;;;;;25423975;23;20179;-74
2022/01/12 09:58:02;;;;;;;0.20;0.10;;;11.80;99.90;;;;;;25422472;23;20625;-75
2022/01/12 10:08:12;;;;;;;0.20;0.10;;;11.90;99.90;;;;;;25449505;23;20249;-73
2022/01/12 10:18:19;;;;;;;0.20;0.10;;;12.10;99.90;;;;;;25450938;23;20268;-70
2022/01/12 10:28:24;;;;;;;0.20;0.10;;;12.40;99.90;;;;;;25422558;23;20268;-74
2022/01/12 10:38:29;;;;;;;0.20;0.00;;;12.80;99.90;;;;;;25448538;23;20233;-74
2022/01/12 10:48:43;;;;;;;0.20;0.10;;;13.50;99.90;;;;;;25447856;23;20175;-73
2022/01/12 10:58:48;;;;;;;0.20;0.10;;;14.40;99.90;;;;;;25420825;23;20222;-67
2022/01/12 11:08:54;;;;;;;1.10;0.93;;;14.50;99.90;;;;;;25447147;23;20175;-66
2022/01/12 11:19:00;;;;;;;0.20;0.10;;;14.70;99.90;;;;;;25421838;23;20303;-74
2022/01/12 11:29:06;;;;;;;0.20;0.00;;;15.40;99.90;;;;;;25448388;23;20190;-77
2022/01/12 11:39:11;;;;;;;0.20;0.10;;;14.80;99.90;;;;;;25447461;23;20589;-73
2022/01/12 11:49:28;;;;;;;0.20;0.10;;;14.40;99.90;;;;;;25446426;23;20550;-74
2022/01/12 11:59:49;;;;;;;0.20;0.00;;;15.20;99.90;;;;;;25443559;23;20249;-67
2022/01/12 12:09:58;;;;;;;0.30;0.23;;;15.70;99.90;;;;;;25412138;23;20266;-68
2022/01/12 12:20:04;;;;;;;0.20;0.13;;;16.10;99.90;;;;;;25444883;23;20221;-67
2022/01/12 12:30:13;;;;;;;0.20;0.03;;;17.10;99.90;;;;;;25447163;23;20182;-67
2022/01/12 12:40:20;;;;;;;0.20;0.10;;;16.00;99.90;;;;;;25443941;23;20211;-68
2022/01/12 12:50:31;;;;;;;0.20;0.00;;;17.50;99.90;;;;;;25444934;23;20485;-67
2022/01/12 13:00:36;;;;;;;0.20;0.10;;;17.60;99.90;;;;;;25446050;23;20217;-68
2022/01/12 13:10:41;;;;;;;1.53;0.83;;;17.40;99.90;;;;;;25446762;23;20704;-67
2022/01/12 13:31:13;;;;;;;2.10;0.83;;;17.50;99.90;;;;;;25439937;23;20175;-68
2022/01/12 14:30:56;;;;;;;0.20;0.10;;;18.20;99.90;;;;;;25555216;23;20644;-67
2022/01/12 14:41:03;;;;;;;0.20;0.10;;;17.80;99.90;;;;;;25573705;23;20194;-67
2022/01/12 14:51:08;;;;;;;0.20;0.10;;;18.30;99.90;;;;;;25574321;23;20174;-68
2022/01/12 15:01:12;;;;;;;0.20;0.10;;;17.90;99.90;;;;;;25572486;23;20667;-69
2022/01/12 15:11:18;;;;;;;0.20;0.10;;;16.50;99.90;;;;;;25570996;23;20170;-69
2022/01/12 15:21:22;;;;;;;0.20;0.10;;;16.40;99.90;;;;;;25571506;23;20190;-65
2022/01/12 15:31:27;;;;;;;0.20;0.10;;;16.80;99.90;;;;;;25568525;23;20218;-66
2022/01/12 15:41:31;;;;;;;0.20;0.10;;;16.70;99.90;;;;;;25569128;23;20285;-66
2022/01/12 15:51:36;;;;;;;0.20;0.10;;;16.50;99.90;;;;;;25568593;23;20779;-71
2022/01/12 16:01:40;;;;;;;0.20;0.10;;;15.90;99.90;;;;;;25569717;23;20236;-73
2022/01/12 16:11:46;;;;;;;0.20;0.10;;;14.90;99.90;;;;;;25574907;23;20269;-73
2022/01/12 16:22:10;;;;;;;0.40;0.40;;;13.80;99.90;;;;;;25577072;23;20197;-74
2022/01/12 16:32:16;;;;;;;0.20;0.10;;;13.00;99.90;;;;;;25580756;23;20233;-72
2022/01/12 16:42:19;;;;;;;0.20;0.10;;;12.50;99.90;;;;;;25580244;23;20217;-72
2022/01/12 16:52:24;;;;;;;0.20;0.10;;;12.10;99.90;;;;;;25578896;23;20676;-72
2022/01/12 17:02:28;;;;;;;0.20;0.10;;;12.00;99.90;;;;;;25579811;23;20244;-72
2022/01/12 17:12:34;;;;;;;0.20;0.10;;;11.90;99.90;;;;;;25576185;23;20504;-72
2022/01/12 17:22:37;;;;;;;0.20;0.10;;;11.60;99.90;;;;;;25578955;23;20748;-71
2022/01/12 17:32:43;;;;;;;0.20;0.10;;;11.40;99.90;;;;;;25583761;23;20204;-71
2022/01/12 17:42:47;;;;;;;0.20;0.10;;;11.50;99.90;;;;;;25583108;23;20876;-73
2022/01/12 17:52:52;;;;;;;0.20;0.10;;;11.20;99.90;;;;;;25581840;23;20316;-68
2022/01/12 18:02:59;;;;;;;0.20;0.10;;;11.10;99.90;;;;;;25585144;23;20205;-72
2022/01/12 18:13:04;;;;;;;3.63;3.33;;;10.90;99.90;;;;;;25587642;23;20155;-70
2022/01/12 18:23:08;;;;;;;0.20;0.10;;;10.40;99.90;;;;;;25588436;23;20213;-75
2022/01/12 18:33:13;;;;;;;0.20;0.10;;;10.20;99.90;;;;;;25587795;23;20202;-74
2022/01/12 18:43:18;;;;;;;0.63;0.63;;;9.80;99.90;;;;;;25588336;23;20958;-66
2022/01/12 18:53:23;;;;;;;0.20;0.10;;;9.50;99.90;;;;;;25588368;23;20170;-64
2022/01/12 19:03:27;;;;;;;0.20;0.10;;;9.30;99.90;;;;;;25588625;23;20228;-69
2022/01/12 19:13:34;;;;;;;0.20;0.10;;;9.20;99.90;;;;;;25587161;23;20167;-68
2022/01/12 19:23:38;;;;;;;0.20;0.10;;;8.60;99.90;;;;;;25585469;23;20220;-69
2022/01/12 19:33:43;;;;;;;0.20;0.10;;;8.50;99.90;;;;;;25586712;23;20200;-68
2022/01/12 19:43:48;;;;;;;0.20;0.10;;;8.20;99.90;;;;;;25586547;23;20193;-68
2022/01/12 19:53:57;;;;;;;0.20;0.20;;;8.10;99.90;;;;;;25587209;23;20167;-65
2022/01/12 20:04:04;;;;;;;6.77;6.30;;;7.80;99.90;;;;;;25584641;23;20240;-65
2022/01/12 20:14:09;;;;;;;0.20;0.10;;;7.90;99.90;;;;;;25585298;23;20181;-66
2022/01/12 20:24:38;;;;;;;4.93;4.63;;;8.10;99.90;;;;;;25584939;23;20165;-65
2022/01/12 20:34:45;;;;;;;0.93;0.93;;;7.80;99.90;;;;;;25585350;23;20209;-66
2022/01/12 20:44:50;;;;;;;0.20;0.10;;;7.70;99.90;;;;;;25586939;23;20604;-69
2022/01/12 20:54:56;;;;;;;0.20;0.10;;;7.40;99.90;;;;;;25588217;23;20217;-71
2022/01/12 21:05:00;;;;;;;0.20;0.10;;;7.20;99.90;;;;;;25588378;23;20268;-68
2022/01/12 21:15:06;;;;;;;0.20;0.10;;;6.60;99.90;;;;;;25589668;23;20194;-66
2022/01/12 21:25:11;;;;;;;0.20;0.10;;;6.80;99.90;;;;;;25589494;23;20249;-68
2022/01/12 21:35:22;;;;;;;0.20;0.10;;;6.90;99.90;;;;;;25587759;23;20225;-69
2022/01/12 21:45:26;;;;;;;0.20;0.10;;;6.90;99.90;;;;;;25586351;23;20278;-69
2022/01/12 21:55:32;;;;;;;0.20;0.00;;;7.20;99.90;;;;;;25585590;23;20194;-69
2022/01/12 22:05:36;;;;;;;0.20;0.10;;;7.40;99.90;;;;;;25584700;23;20296;-67
2022/01/12 22:15:41;;;;;;;0.20;0.10;;;7.40;99.90;;;;;;25585421;23;20248;-68
2022/01/12 22:25:47;;;;;;;0.20;0.10;;;7.20;99.90;;;;;;25584152;23;20174;-67
2022/01/12 22:35:53;;;;;;;0.20;0.10;;;7.00;99.90;;;;;;25580243;23;20210;-67
2022/01/12 22:45:56;;;;;;;0.20;0.10;;;6.90;99.90;;;;;;25583616;23;20170;-67
2022/01/12 22:56:02;;;;;;;0.20;0.10;;;6.90;99.90;;;;;;25583469;23;20281;-68
2022/01/12 23:06:06;;;;;;;0.20;0.10;;;6.60;99.90;;;;;;25583277;23;20252;-68
2022/01/12 23:16:12;;;;;;;0.20;0.10;;;6.40;99.90;;;;;;25581963;23;20275;-68
2022/01/12 23:26:16;;;;;;;0.20;0.10;;;6.30;99.90;;;;;;25580916;23;20166;-68
2022/01/12 23:57:05;;;;;;;0.20;0.10;;;5.90;99.90;;;;;;25580169;23;20218;-68
